Time;durP1;ratioP1;P1;durP2;ratioP2;P2;SDS_P1;SDS_P2;PMS_P1;PMS_P2;Temp;Humidity;BMP_temperature;BMP_pressure;BME280_temperature;BME280_humidity;BME280_pressure;Samples;Min_cycle;Max_cycle;Signal;HPM_P1;HPM_P2
2023/02/21 02:15:38;;;;;;;10.27;6.60;;;8.00;99.90;;;;;;5071326;28;20676;-81
2023/02/21 02:18:44;;;;;;;13.13;5.68;;;8.00;99.90;;;;;;5080967;28;20229;-80
2023/02/21 02:21:46;;;;;;;12.57;7.13;;;8.00;99.90;;;;;;5060785;28;20194;-80
2023/02/21 02:24:40;;;;;;;8.82;7.30;;;8.00;99.90;;;;;;5057284;28;20217;-80
2023/02/21 02:27:33;;;;;;;7.05;4.00;;;8.00;99.90;;;;;;5056798;28;20198;-80
2023/02/21 02:30:33;;;;;;;10.63;6.38;;;8.00;99.90;;;;;;5065159;28;20218;-80
2023/02/21 02:33:40;;;;;;;5.15;3.47;;;8.00;99.90;;;;;;5071012;28;20696;-79
2023/02/21 02:36:13;;;;;;;20.40;9.98;;;8.00;99.90;;;;;;5070406;28;20190;-80
2023/02/21 02:38:51;;;;;;;7.22;3.85;;;7.90;99.90;;;;;;5072936;28;20296;-80
2023/02/21 02:41:27;;;;;;;3.47;1.95;;;8.00;99.90;;;;;;5064456;28;20221;-81
2023/02/21 02:44:00;;;;;;;6.68;1.40;;;8.00;99.90;;;;;;5081152;28;20217;-78
2023/02/21 02:46:30;;;;;;;2.22;2.03;;;8.00;99.90;;;;;;5073006;28;20201;-81
2023/02/21 02:49:01;;;;;;;8.95;5.32;;;8.00;99.90;;;;;;5081010;28;20194;-79
2023/02/21 02:51:32;;;;;;;7.95;5.18;;;8.00;99.90;;;;;;5070437;28;20278;-80
2023/02/21 02:53:59;;;;;;;7.78;4.93;;;8.00;99.90;;;;;;5069001;28;20205;-80
2023/02/21 02:56:27;;;;;;;25.60;13.52;;;8.00;99.90;;;;;;5062146;28;20259;-80
2023/02/21 02:58:58;;;;;;;0.50;0.40;;;8.00;99.90;;;;;;5072585;28;20241;-80
2023/02/21 03:01:52;;;;;;;7.95;7.35;;;8.00;99.90;;;;;;5079703;28;20210;-81
2023/02/21 03:04:44;;;;;;;18.65;11.50;;;8.00;99.90;;;;;;5077730;28;20202;-79
2023/02/21 03:07:21;;;;;;;10.63;4.47;;;8.00;99.90;;;;;;5080100;28;20194;-81
2023/02/21 03:10:01;;;;;;;3.50;3.20;;;7.90;99.90;;;;;;5056078;28;20193;-81
2023/02/21 03:12:35;;;;;;;9.85;7.72;;;7.90;99.90;;;;;;5077796;28;20395;-80
2023/02/21 03:15:08;;;;;;;10.32;3.65;;;7.90;99.90;;;;;;5074595;28;20194;-81
2023/02/21 03:17:41;;;;;;;0.50;0.40;;;8.00;99.90;;;;;;5073772;28;20202;-81
2023/02/21 03:20:10;;;;;;;16.40;5.75;;;8.00;99.90;;;;;;5074697;28;20190;-81
2023/02/21 03:22:40;;;;;;;7.53;3.92;;;8.00;99.90;;;;;;5070042;28;20333;-79
2023/02/21 03:25:08;;;;;;;20.92;7.55;;;8.00;99.90;;;;;;5061431;28;20187;-81
2023/02/21 03:27:38;;;;;;;2.90;2.70;;;8.00;99.90;;;;;;5064920;28;20278;-81
2023/02/21 03:30:07;;;;;;;0.60;0.60;;;8.00;99.90;;;;;;5067644;28;20545;-81
2023/02/21 03:32:37;;;;;;;3.83;3.08;;;8.00;99.90;;;;;;5080263;28;20242;-79
2023/02/21 03:35:05;;;;;;;8.98;6.18;;;8.00;99.90;;;;;;5067032;28;20186;-80
2023/02/21 03:37:35;;;;;;;8.68;5.95;;;8.00;99.90;;;;;;5062145;28;20811;-80
2023/02/21 03:40:05;;;;;;;1.35;0.95;;;8.00;99.90;;;;;;5068382;28;20204;-80
2023/02/21 03:42:31;;;;;;;5.45;4.40;;;8.00;99.90;;;;;;5081934;28;20282;-79
2023/02/21 03:44:58;;;;;;;5.75;1.67;;;8.00;99.90;;;;;;5081635;28;20281;-80
2023/02/21 03:47:25;;;;;;;5.03;4.72;;;8.00;99.90;;;;;;5071622;28;20297;-80
2023/02/21 03:49:52;;;;;;;26.08;7.75;;;8.00;99.90;;;;;;5068433;28;20191;-78
2023/02/21 03:52:19;;;;;;;11.88;2.05;;;8.00;99.90;;;;;;5060458;28;20321;-79
2023/02/21 03:54:46;;;;;;;5.68;2.78;;;8.00;99.90;;;;;;5061305;28;20258;-81
2023/02/21 03:57:14;;;;;;;10.93;9.77;;;8.00;99.90;;;;;;5077892;28;20239;-81
2023/02/21 03:59:41;;;;;;;7.78;1.35;;;8.00;99.90;;;;;;5077487;28;20216;-80
2023/02/21 04:02:08;;;;;;;8.48;7.82;;;8.00;99.90;;;;;;5071363;28;20282;-81
2023/02/21 04:04:35;;;;;;;1.38;1.27;;;8.00;99.90;;;;;;5077250;28;20198;-81
2023/02/21 04:07:02;;;;;;;24.17;11.52;;;8.00;99.90;;;;;;5077279;28;20649;-79
2023/02/21 04:09:29;;;;;;;7.18;2.65;;;7.90;99.90;;;;;;5077863;28;20301;-80
2023/02/21 04:11:56;;;;;;;14.27;4.25;;;8.00;99.90;;;;;;5077545;28;20210;-80
2023/02/21 04:14:24;;;;;;;6.28;3.58;;;8.00;99.90;;;;;;5068157;28;20218;-80
2023/02/21 04:16:51;;;;;;;0.80;0.80;;;8.00;99.90;;;;;;5062271;28;20192;-80
2023/02/21 04:19:18;;;;;;;2.17;1.98;;;8.00;99.90;;;;;;5078292;28;20228;-80
2023/02/21 04:21:45;;;;;;;4.57;2.42;;;8.00;99.90;;;;;;5077960;28;20214;-79
2023/02/21 04:24:12;;;;;;;5.18;4.97;;;8.00;99.90;;;;;;5077981;28;20279;-79
2023/02/21 04:26:38;;;;;;;6.53;5.20;;;8.00;99.90;;;;;;5070323;28;20226;-79
2023/02/21 04:29:06;;;;;;;20.23;11.48;;;8.00;99.90;;;;;;5079925;28;20183;-80
2023/02/21 04:31:34;;;;;;;2.85;2.63;;;8.00;99.90;;;;;;5073568;28;20252;-79
2023/02/21 04:34:01;;;;;;;3.30;2.13;;;8.00;99.90;;;;;;5084387;28;20301;-79
2023/02/21 04:36:28;;;;;;;11.35;6.72;;;8.00;99.90;;;;;;5077790;28;20633;-79
2023/02/21 04:38:55;;;;;;;9.20;8.23;;;8.00;99.90;;;;;;5086234;28;20243;-78
2023/02/21 04:41:23;;;;;;;1.17;1.15;;;7.90;99.90;;;;;;5084163;28;20210;-79
2023/02/21 04:43:51;;;;;;;0.50;0.40;;;7.80;99.90;;;;;;5073727;28;20708;-78
2023/02/21 04:46:18;;;;;;;15.95;11.50;;;7.80;99.90;;;;;;5081596;28;20198;-79
2023/02/21 04:48:49;;;;;;;26.33;12.93;;;7.80;99.90;;;;;;5082321;28;20661;-79
2023/02/21 04:51:18;;;;;;;23.13;11.55;;;7.80;99.90;;;;;;5083128;28;20194;-79
2023/02/21 04:53:48;;;;;;;5.03;3.58;;;7.70;99.90;;;;;;5089366;28;20190;-79
2023/02/21 04:56:17;;;;;;;8.20;5.72;;;7.70;99.90;;;;;;5081421;28;20194;-79
2023/02/21 04:58:44;;;;;;;8.82;6.47;;;7.70;99.90;;;;;;5069069;28;20230;-79
2023/02/21 05:01:11;;;;;;;5.60;5.10;;;7.70;99.90;;;;;;5067779;28;20197;-79
2023/02/21 05:03:38;;;;;;;4.60;3.05;;;7.70;99.90;;;;;;5065183;28;20199;-79
2023/02/21 05:06:07;;;;;;;3.85;3.55;;;7.70;99.90;;;;;;5064098;28;20193;-80
2023/02/21 05:08:35;;;;;;;0.50;0.40;;;7.70;99.90;;;;;;5077050;28;20278;-79
2023/02/21 05:11:02;;;;;;;7.55;6.45;;;7.70;99.90;;;;;;5083136;28;20625;-79
2023/02/21 05:13:28;;;;;;;19.98;6.05;;;7.80;99.90;;;;;;5082915;28;20217;-80
2023/02/21 05:15:55;;;;;;;2.65;2.45;;;7.80;99.90;;;;;;5067768;28;20224;-79
2023/02/21 05:18:27;;;;;;;1.80;1.70;;;7.70;99.90;;;;;;5060736;28;20210;-79
2023/02/21 05:20:54;;;;;;;1.48;0.95;;;7.80;99.90;;;;;;5061893;28;20626;-79
2023/02/21 05:23:34;;;;;;;3.70;3.35;;;7.80;99.90;;;;;;5062107;28;20226;-79
2023/02/21 05:26:01;;;;;;;17.23;10.05;;;7.90;99.90;;;;;;5053908;28;20281;-78
2023/02/21 05:28:28;;;;;;;4.28;3.80;;;7.80;99.90;;;;;;5070808;28;20301;-80
2023/02/21 05:30:55;;;;;;;23.70;12.55;;;7.80;99.90;;;;;;5075905;28;20191;-79
2023/02/21 05:33:22;;;;;;;4.70;2.75;;;7.70;99.90;;;;;;5062733;28;20246;-80
2023/02/21 05:35:49;;;;;;;0.70;0.70;;;7.70;99.90;;;;;;5062816;28;20215;-79
2023/02/21 05:38:16;;;;;;;8.57;6.55;;;7.70;99.90;;;;;;5061354;28;20306;-78
2023/02/21 05:40:45;;;;;;;3.78;3.45;;;7.70;99.90;;;;;;5060137;28;20201;-78
2023/02/21 05:43:12;;;;;;;14.63;10.77;;;7.70;99.90;;;;;;5061258;28;20261;-79
2023/02/21 05:45:39;;;;;;;5.68;3.28;;;7.70;99.90;;;;;;5062846;28;20667;-79
2023/02/21 05:48:06;;;;;;;4.30;1.58;;;7.80;99.90;;;;;;5067225;28;20740;-79
2023/02/21 05:50:33;;;;;;;1.27;1.20;;;7.70;99.90;;;;;;5071237;28;20201;-79
2023/02/21 05:53:00;;;;;;;19.88;9.77;;;7.70;99.90;;;;;;5060439;28;20253;-79
2023/02/21 05:55:28;;;;;;;5.22;4.72;;;7.80;99.90;;;;;;5056403;28;20195;-78
2023/02/21 05:57:56;;;;;;;24.40;9.10;;;7.70;99.90;;;;;;5065160;28;20194;-78
2023/02/21 06:00:24;;;;;;;33.97;11.35;;;7.70;99.90;;;;;;5060961;28;20205;-77
2023/02/21 06:02:52;;;;;;;29.33;11.20;;;7.60;99.90;;;;;;5062828;28;20248;-78
2023/02/21 06:05:19;;;;;;;20.42;6.30;;;7.60;99.90;;;;;;5058728;28;20191;-79
2023/02/21 06:07:46;;;;;;;23.75;12.40;;;7.50;99.90;;;;;;5056632;28;20637;-78
2023/02/21 06:10:14;;;;;;;23.90;14.18;;;7.50;99.90;;;;;;5068001;28;20197;-79
2023/02/21 06:12:41;;;;;;;18.67;12.13;;;7.50;99.90;;;;;;5061252;28;20272;-77
2023/02/21 06:15:11;;;;;;;10.15;7.38;;;7.50;99.90;;;;;;5063119;28;20194;-78
2023/02/21 06:17:38;;;;;;;8.05;3.97;;;7.50;99.90;;;;;;5069173;28;20262;-77
2023/02/21 06:20:07;;;;;;;10.40;7.38;;;7.50;99.90;;;;;;5066819;28;20242;-79
2023/02/21 06:22:33;;;;;;;21.40;4.25;;;7.50;99.90;;;;;;5072537;28;20225;-78
2023/02/21 06:25:00;;;;;;;4.03;3.83;;;7.50;99.90;;;;;;5067305;28;20842;-78
2023/02/21 06:27:27;;;;;;;8.27;6.32;;;7.50;99.90;;;;;;5080068;28;20204;-78
2023/02/21 06:29:54;;;;;;;1.50;1.33;;;7.50;99.90;;;;;;5078239;28;20556;-78
2023/02/21 06:32:22;;;;;;;10.23;5.88;;;7.60;99.90;;;;;;5070877;28;20702;-76
2023/02/21 06:34:49;;;;;;;19.15;10.88;;;7.60;99.90;;;;;;5075144;28;20569;-78
2023/02/21 06:37:18;;;;;;;4.68;4.18;;;7.60;99.90;;;;;;5067101;28;20251;-79
2023/02/21 06:39:45;;;;;;;7.53;4.32;;;7.60;99.90;;;;;;5059885;28;20253;-79
2023/02/21 06:42:13;;;;;;;5.90;2.70;;;7.60;99.90;;;;;;5059008;28;20760;-78
2023/02/21 06:44:40;;;;;;;9.93;5.20;;;7.60;99.90;;;;;;5059204;28;20191;-79
2023/02/21 06:47:07;;;;;;;19.35;8.27;;;7.60;99.90;;;;;;5059629;28;20643;-79
2023/02/21 06:49:35;;;;;;;18.83;9.90;;;7.60;99.90;;;;;;5077211;28;20194;-77
2023/02/21 06:52:02;;;;;;;28.50;14.40;;;7.60;99.90;;;;;;5081151;28;20333;-80
2023/02/21 06:54:29;;;;;;;12.07;6.32;;;7.60;99.90;;;;;;5081089;28;20228;-80
2023/02/21 06:56:56;;;;;;;14.93;11.25;;;7.50;99.90;;;;;;5051730;28;20269;-78
2023/02/21 06:59:22;;;;;;;6.72;5.25;;;7.50;99.90;;;;;;5060107;28;20681;-80
2023/02/21 07:01:49;;;;;;;25.23;12.93;;;7.50;99.90;;;;;;5061562;28;20214;-80
2023/02/21 07:04:16;;;;;;;7.40;4.65;;;7.50;99.90;;;;;;5058212;28;20290;-80
2023/02/21 07:06:44;;;;;;;14.23;9.57;;;7.50;99.90;;;;;;5059767;28;20535;-79
2023/02/21 07:09:12;;;;;;;1.13;1.13;;;7.40;99.90;;;;;;5073874;28;20277;-81
2023/02/21 07:11:39;;;;;;;4.00;3.70;;;7.40;99.90;;;;;;5079430;28;20596;-80
2023/02/21 07:14:06;;;;;;;13.88;9.05;;;7.40;99.90;;;;;;5082231;28;20285;-79
2023/02/21 07:16:33;;;;;;;31.27;15.75;;;7.50;99.90;;;;;;5073110;28;20281;-79
2023/02/21 07:19:00;;;;;;;2.00;1.90;;;7.50;99.90;;;;;;5058867;28;20226;-79
2023/02/21 07:21:27;;;;;;;34.35;6.93;;;7.40;99.90;;;;;;5061295;28;20211;-81
2023/02/21 07:23:56;;;;;;;19.25;7.85;;;7.40;99.90;;;;;;5057771;28;20610;-80
2023/02/21 07:26:23;;;;;;;16.70;9.55;;;7.40;99.90;;;;;;5061006;28;20258;-80
2023/02/21 07:28:50;;;;;;;16.15;8.32;;;7.40;99.90;;;;;;5059091;28;20277;-79
2023/02/21 07:31:19;;;;;;;11.75;2.95;;;7.40;99.90;;;;;;5064153;28;20718;-80
2023/02/21 07:33:46;;;;;;;14.60;6.38;;;7.40;99.90;;;;;;5078576;28;20198;-80
2023/02/21 07:36:13;;;;;;;29.95;10.32;;;7.40;99.90;;;;;;5063980;28;20725;-79
2023/02/21 07:38:39;;;;;;;35.13;11.52;;;7.40;99.90;;;;;;5058078;28;20237;-80
2023/02/21 07:41:08;;;;;;;26.75;12.80;;;7.30;99.90;;;;;;5058363;28;20207;-79
2023/02/21 07:43:35;;;;;;;34.03;6.72;;;7.40;99.90;;;;;;5056463;28;20681;-79
2023/02/21 07:46:02;;;;;;;9.13;6.15;;;7.40;99.90;;;;;;5054701;28;20222;-81
2023/02/21 07:48:28;;;;;;;30.88;11.38;;;7.40;99.90;;;;;;5059444;28;20194;-80
2023/02/21 07:50:55;;;;;;;16.48;11.50;;;7.40;99.90;;;;;;5070064;28;20190;-80
2023/02/21 07:53:22;;;;;;;14.90;12.32;;;7.40;99.90;;;;;;5078486;28;20253;-80
2023/02/21 07:55:49;;;;;;;17.58;2.83;;;7.30;99.90;;;;;;5068427;28;20277;-80
2023/02/21 07:58:17;;;;;;;24.52;9.75;;;7.30;99.90;;;;;;5062457;28;20262;-77
2023/02/21 08:00:45;;;;;;;9.70;7.38;;;7.30;99.90;;;;;;5056874;28;20759;-81
2023/02/21 08:03:13;;;;;;;26.10;8.93;;;7.30;99.90;;;;;;5071861;28;20554;-80
2023/02/21 08:05:40;;;;;;;28.77;7.78;;;7.30;99.90;;;;;;5068869;28;20225;-79
2023/02/21 08:08:09;;;;;;;10.57;8.50;;;7.20;99.90;;;;;;5089722;28;20225;-79
2023/02/21 08:10:36;;;;;;;17.17;9.60;;;7.20;99.90;;;;;;5069529;28;20199;-80
2023/02/21 08:13:03;;;;;;;8.77;5.47;;;7.20;99.90;;;;;;5074240;28;20282;-80
2023/02/21 08:15:32;;;;;;;18.17;5.80;;;7.20;99.90;;;;;;5073893;28;20204;-80
2023/02/21 08:17:58;;;;;;;14.30;4.10;;;7.30;99.90;;;;;;5069888;28;20202;-81
2023/02/21 08:20:25;;;;;;;11.25;6.00;;;7.30;99.90;;;;;;5061378;28;20305;-80
2023/02/21 08:22:52;;;;;;;20.48;7.97;;;7.30;99.90;;;;;;5061008;28;20313;-79
2023/02/21 08:25:19;;;;;;;10.48;5.00;;;7.30;99.90;;;;;;5069364;28;20191;-82
2023/02/21 08:27:47;;;;;;;9.52;5.22;;;7.30;99.90;;;;;;5061830;28;20191;-82
2023/02/21 08:30:16;;;;;;;0.50;0.40;;;7.30;99.90;;;;;;5062464;28;20194;-81
2023/02/21 08:32:46;;;;;;;7.97;4.55;;;7.30;99.90;;;;;;5062226;28;20298;-83
2023/02/21 08:35:14;;;;;;;4.97;4.25;;;7.20;99.90;;;;;;5071649;28;20195;-77
2023/02/21 08:37:44;;;;;;;8.07;4.35;;;7.20;99.90;;;;;;5072233;28;20195;-80
2023/02/21 08:40:12;;;;;;;19.17;7.25;;;7.10;99.90;;;;;;5077696;28;20238;-81
2023/02/21 08:42:40;;;;;;;0.70;0.70;;;7.10;99.90;;;;;;5062032;28;20218;-81
2023/02/21 08:45:09;;;;;;;14.07;8.35;;;7.20;99.90;;;;;;5062674;28;20274;-80
2023/02/21 08:47:36;;;;;;;24.92;7.43;;;7.20;99.90;;;;;;5078564;28;20193;-80
2023/02/21 08:50:06;;;;;;;21.77;7.32;;;7.20;99.90;;;;;;5065820;28;20556;-81
2023/02/21 08:52:32;;;;;;;12.90;7.50;;;7.20;99.90;;;;;;5081532;28;20278;-81
2023/02/21 08:54:59;;;;;;;6.20;5.50;;;7.20;99.90;;;;;;5074508;28;20233;-79
2023/02/21 08:57:26;;;;;;;16.42;9.60;;;7.10;99.90;;;;;;5066643;28;20293;-79
2023/02/21 08:59:53;;;;;;;10.13;7.65;;;7.10;99.90;;;;;;5066300;28;20282;-81
2023/02/21 09:02:23;;;;;;;21.98;8.05;;;7.20;99.90;;;;;;5068538;28;20769;-80
2023/02/21 09:04:51;;;;;;;9.35;6.40;;;7.20;99.90;;;;;;5064665;28;20195;-81
2023/02/21 09:07:21;;;;;;;5.47;3.72;;;7.20;99.90;;;;;;5062500;28;20262;-81
2023/02/21 09:09:48;;;;;;;7.82;3.47;;;7.20;99.90;;;;;;5064710;28;20245;-80
2023/02/21 09:12:16;;;;;;;7.45;6.70;;;7.20;99.90;;;;;;5083889;28;20218;-81
2023/02/21 09:14:44;;;;;;;14.32;8.73;;;7.20;99.90;;;;;;5066795;28;20191;-80
2023/02/21 09:17:13;;;;;;;10.65;6.88;;;7.20;99.90;;;;;;5077125;28;20204;-82
2023/02/21 09:19:41;;;;;;;8.02;4.10;;;7.30;99.90;;;;;;5064249;28;20282;-81
2023/02/21 09:22:07;;;;;;;28.27;10.50;;;7.30;99.90;;;;;;5079067;28;20222;-77
2023/02/21 09:24:36;;;;;;;16.20;4.60;;;7.30;99.90;;;;;;5061526;28;20277;-81
2023/02/21 09:27:04;;;;;;;33.00;14.10;;;7.30;99.90;;;;;;5074088;28;20257;-82
2023/02/21 09:29:32;;;;;;;5.07;4.30;;;7.30;99.90;;;;;;5074122;28;20222;-80
2023/02/21 09:31:59;;;;;;;13.50;7.03;;;7.20;99.90;;;;;;5079154;28;20218;-80
2023/02/21 09:34:26;;;;;;;23.25;10.07;;;7.30;99.90;;;;;;5068234;28;20198;-80
2023/02/21 09:36:54;;;;;;;8.05;4.57;;;7.30;99.90;;;;;;5079302;28;20194;-81
2023/02/21 09:39:22;;;;;;;21.48;5.95;;;7.40;99.90;;;;;;5064779;28;20195;-80
2023/02/21 09:41:54;;;;;;;3.85;3.53;;;7.40;99.90;;;;;;5062568;28;20318;-80
2023/02/21 09:44:24;;;;;;;3.40;3.20;;;7.40;99.90;;;;;;5068106;28;20281;-79
2023/02/21 09:46:54;;;;;;;26.73;12.23;;;7.40;99.90;;;;;;5080792;28;20212;-81
2023/02/21 09:49:24;;;;;;;37.80;10.07;;;7.40;99.90;;;;;;5066901;28;20190;-78
2023/02/21 09:51:52;;;;;;;21.50;10.25;;;7.40;99.90;;;;;;5063628;28;20221;-81
2023/02/21 09:54:25;;;;;;;19.02;10.55;;;7.40;99.90;;;;;;5068516;28;20262;-81
2023/02/21 09:56:56;;;;;;;18.83;8.82;;;7.40;99.90;;;;;;5062081;28;20211;-81
2023/02/21 09:59:24;;;;;;;2.22;2.10;;;7.40;99.90;;;;;;5069915;28;20637;-81
2023/02/21 10:02:01;;;;;;;13.88;4.25;;;7.40;99.90;;;;;;5062641;28;20210;-80
2023/02/21 10:04:38;;;;;;;0.50;0.40;;;7.40;99.90;;;;;;5068343;28;20243;-81
2023/02/21 10:07:13;;;;;;;6.60;2.35;;;7.50;99.90;;;;;;5063098;28;20190;-81
2023/02/21 10:09:47;;;;;;;12.20;4.38;;;7.60;99.90;;;;;;5070191;28;20747;-81
2023/02/21 10:12:23;;;;;;;5.43;4.85;;;7.70;99.90;;;;;;5054045;28;20297;-82
2023/02/21 10:15:14;;;;;;;9.07;5.47;;;7.70;99.90;;;;;;5061950;28;20596;-82
2023/02/21 10:17:45;;;;;;;1.90;1.80;;;7.70;99.90;;;;;;5074074;28;20193;-81
2023/02/21 10:20:15;;;;;;;9.18;8.02;;;7.70;99.90;;;;;;5054454;28;20242;-80
2023/02/21 10:22:46;;;;;;;7.93;6.10;;;7.80;99.90;;;;;;5063547;28;20258;-81
2023/02/21 10:25:21;;;;;;;11.95;9.77;;;7.80;99.90;;;;;;5082692;28;20222;-78
2023/02/21 10:27:52;;;;;;;9.40;8.50;;;7.80;99.90;;;;;;5074269;28;20199;-81
2023/02/21 10:30:30;;;;;;;14.90;6.22;;;7.80;99.90;;;;;;5082326;28;20186;-81
2023/02/21 10:32:57;;;;;;;13.18;3.08;;;7.80;99.90;;;;;;5073360;28;20214;-82
2023/02/21 10:35:25;;;;;;;16.73;9.38;;;7.90;99.90;;;;;;5073885;28;20625;-79
2023/02/21 10:37:56;;;;;;;7.63;4.43;;;7.80;99.90;;;;;;5073152;28;20634;-80
2023/02/21 10:40:30;;;;;;;5.38;2.47;;;7.80;99.90;;;;;;5066993;28;20641;-81
2023/02/21 10:43:03;;;;;;;10.30;5.05;;;7.90;99.90;;;;;;5071801;28;20274;-79
2023/02/21 10:45:35;;;;;;;5.78;5.32;;;7.90;99.90;;;;;;5074044;28;20220;-80
2023/02/21 10:48:05;;;;;;;21.38;8.43;;;8.00;99.90;;;;;;5081140;28;20198;-79
2023/02/21 10:50:50;;;;;;;7.35;5.63;;;8.00;99.90;;;;;;5068392;28;20187;-81
2023/02/21 10:53:26;;;;;;;11.95;4.50;;;7.90;99.90;;;;;;5063129;28;20214;-79
2023/02/21 10:56:08;;;;;;;27.52;8.00;;;7.90;99.90;;;;;;5073166;28;20194;-79
2023/02/21 10:58:37;;;;;;;11.80;6.80;;;7.90;99.90;;;;;;5076075;28;20273;-78
2023/02/21 11:01:15;;;;;;;12.60;4.60;;;7.80;99.90;;;;;;5066654;28;20325;-81
2023/02/21 11:03:47;;;;;;;7.20;6.80;;;7.80;99.90;;;;;;5081624;28;20257;-81
2023/02/21 11:06:27;;;;;;;15.88;7.05;;;7.80;99.90;;;;;;5080594;28;20277;-81
2023/02/21 11:08:54;;;;;;;12.70;6.93;;;7.90;99.90;;;;;;5079149;28;20193;-80
2023/02/21 11:11:36;;;;;;;10.70;6.47;;;8.00;99.90;;;;;;5066056;28;20289;-80
2023/02/21 11:14:23;;;;;;;8.75;5.40;;;8.10;99.90;;;;;;5067869;28;20258;-80
2023/02/21 11:17:07;;;;;;;5.18;1.67;;;8.10;99.90;;;;;;5066735;28;20557;-81
2023/02/21 11:19:47;;;;;;;38.78;11.00;;;8.10;99.90;;;;;;5065338;28;20263;-81
2023/02/21 11:22:14;;;;;;;9.02;8.32;;;8.10;99.90;;;;;;5070598;28;20246;-81
2023/02/21 11:25:00;;;;;;;7.63;4.53;;;8.20;99.90;;;;;;5079403;28;20714;-80
2023/02/21 11:27:31;;;;;;;2.13;2.03;;;8.20;99.90;;;;;;5072520;28;20243;-80
2023/02/21 11:30:01;;;;;;;16.25;7.75;;;8.40;99.90;;;;;;5067122;28;20221;-81
2023/02/21 11:32:32;;;;;;;3.42;3.22;;;8.50;99.90;;;;;;5058075;28;20219;-81
2023/02/21 11:35:08;;;;;;;19.67;10.40;;;8.60;99.90;;;;;;5068688;28;20212;-79
2023/02/21 11:37:48;;;;;;;6.55;5.25;;;8.60;99.90;;;;;;5065421;28;20607;-81
2023/02/21 11:40:24;;;;;;;2.42;2.22;;;8.70;99.90;;;;;;5060216;28;20232;-80
2023/02/21 11:42:50;;;;;;;3.70;1.98;;;8.80;99.90;;;;;;5071658;28;20242;-80
2023/02/21 11:45:28;;;;;;;9.60;6.32;;;8.80;99.90;;;;;;5068543;28;20562;-82
2023/02/21 11:48:01;;;;;;;13.25;9.32;;;8.80;99.90;;;;;;5065571;28;20429;-80
2023/02/21 11:50:33;;;;;;;12.13;8.18;;;8.80;99.90;;;;;;5068556;28;20225;-80
2023/02/21 11:53:06;;;;;;;27.02;10.15;;;8.70;99.90;;;;;;5064238;28;20245;-81
2023/02/21 11:55:33;;;;;;;15.13;9.98;;;8.70;99.90;;;;;;5073415;28;20289;-81
2023/02/21 11:58:11;;;;;;;5.97;4.32;;;8.70;99.90;;;;;;5078386;28;20194;-81
2023/02/21 12:01:00;;;;;;;2.85;2.75;;;8.70;99.90;;;;;;5083631;28;20209;-81
2023/02/21 12:04:22;;;;;;;17.55;7.70;;;8.70;99.90;;;;;;5067961;28;20214;-81
2023/02/21 12:06:54;;;;;;;1.67;1.45;;;8.70;99.90;;;;;;5052245;28;20249;-79
2023/02/21 12:09:28;;;;;;;6.43;4.57;;;8.60;99.90;;;;;;5062647;28;20252;-79
2023/02/21 12:12:05;;;;;;;5.45;2.70;;;8.70;99.90;;;;;;5068263;28;20233;-81
2023/02/21 12:14:44;;;;;;;14.63;7.90;;;8.70;99.90;;;;;;5063795;28;20281;-81
2023/02/21 12:17:40;;;;;;;5.45;3.95;;;8.80;99.90;;;;;;5078721;28;20248;-81
2023/02/21 12:20:28;;;;;;;3.13;2.65;;;8.70;99.90;;;;;;5064789;28;20210;-81
2023/02/21 12:23:06;;;;;;;12.00;5.88;;;8.70;99.90;;;;;;5057935;28;20272;-80
2023/02/21 12:25:52;;;;;;;14.23;4.72;;;8.70;99.90;;;;;;5077343;28;20684;-81
2023/02/21 12:28:26;;;;;;;1.77;1.67;;;8.70;99.90;;;;;;5060749;28;20564;-77
2023/02/21 12:31:08;;;;;;;4.43;3.72;;;8.80;99.90;;;;;;5069187;28;20331;-81
2023/02/21 12:33:44;;;;;;;3.03;2.80;;;8.90;99.90;;;;;;5065170;28;20281;-81
2023/02/21 12:36:26;;;;;;;4.88;2.80;;;9.00;99.90;;;;;;5069807;28;20197;-82
2023/02/21 12:38:59;;;;;;;13.48;4.80;;;9.10;99.90;;;;;;5061218;28;20190;-81
2023/02/21 12:41:42;;;;;;;6.82;4.90;;;9.10;99.90;;;;;;5063071;28;20202;-81
2023/02/21 12:44:14;;;;;;;1.95;1.00;;;9.10;99.90;;;;;;5068605;28;20244;-81
2023/02/21 12:46:46;;;;;;;0.82;0.82;;;9.10;99.90;;;;;;5058511;28;20258;-82
2023/02/21 12:49:19;;;;;;;2.05;1.95;;;9.00;99.90;;;;;;5066890;28;20258;-80
2023/02/21 12:51:53;;;;;;;13.95;6.22;;;9.10;99.90;;;;;;5066558;28;20222;-82
2023/02/21 12:54:24;;;;;;;9.07;3.42;;;9.20;99.90;;;;;;5061655;28;20201;-81
2023/02/21 12:56:57;;;;;;;8.02;4.93;;;9.20;99.90;;;;;;5070588;28;20285;-80
2023/02/21 12:59:30;;;;;;;0.95;0.95;;;9.20;99.90;;;;;;5071463;28;20218;-81
2023/02/21 13:02:02;;;;;;;4.72;1.95;;;9.30;99.90;;;;;;5071342;28;20214;-81
2023/02/21 13:04:42;;;;;;;9.27;3.58;;;9.40;99.90;;;;;;5078314;28;20666;-81
2023/02/21 13:07:18;;;;;;;3.55;3.25;;;9.50;99.90;;;;;;5081371;28;20297;-82
2023/02/21 13:09:50;;;;;;;1.50;1.05;;;9.50;99.90;;;;;;5073748;28;20204;-81
2023/02/21 13:12:21;;;;;;;0.60;0.60;;;9.50;99.90;;;;;;5055873;28;20301;-78
2023/02/21 13:14:51;;;;;;;7.18;5.22;;;9.50;99.90;;;;;;5074746;28;20190;-79
2023/02/21 13:17:19;;;;;;;8.10;6.30;;;9.50;99.90;;;;;;5061955;28;20258;-79
2023/02/21 13:19:52;;;;;;;7.47;3.13;;;9.40;99.90;;;;;;5069646;28;20198;-81
2023/02/21 13:25:23;;;;;;;0.50;0.40;;;9.30;99.90;;;;;;5064163;28;20193;-81
2023/02/21 13:28:01;;;;;;;4.93;4.63;;;9.30;99.90;;;;;;5071672;28;20194;-81
2023/02/21 13:30:37;;;;;;;3.25;3.05;;;9.30;99.90;;;;;;5066529;28;20190;-82
2023/02/21 13:33:04;;;;;;;1.73;1.63;;;9.30;99.90;;;;;;5062771;28;20252;-80
2023/02/21 13:35:36;;;;;;;0.50;0.43;;;9.30;99.90;;;;;;5072908;28;20225;-79
2023/02/21 13:38:06;;;;;;;1.27;1.25;;;9.30;99.90;;;;;;5073158;28;20217;-80
2023/02/21 13:40:37;;;;;;;17.35;5.88;;;9.40;99.90;;;;;;5066840;28;20650;-80
2023/02/21 13:43:12;;;;;;;7.65;5.30;;;9.40;99.90;;;;;;5063739;28;20647;-79
2023/02/21 13:45:40;;;;;;;3.40;3.20;;;9.30;99.90;;;;;;5074317;28;20199;-80
2023/02/21 13:48:19;;;;;;;2.42;2.33;;;9.30;99.90;;;;;;5061626;28;20632;-79
2023/02/21 13:50:50;;;;;;;0.50;0.40;;;9.30;99.90;;;;;;5069344;28;20205;-81
2023/02/21 13:53:19;;;;;;;2.00;1.90;;;9.30;99.90;;;;;;5075734;28;20283;-80
2023/02/21 13:56:25;;;;;;;1.27;1.27;;;9.30;99.90;;;;;;5067338;28;20277;-81
2023/02/21 13:58:52;;;;;;;6.05;3.63;;;9.30;99.90;;;;;;5069560;28;20282;-82
2023/02/21 14:01:51;;;;;;;10.65;5.15;;;9.40;99.90;;;;;;5054458;28;20206;-82
2023/02/21 14:05:01;;;;;;;7.90;4.82;;;9.30;99.90;;;;;;5070929;28;20198;-81
2023/02/21 14:08:03;;;;;;;2.90;2.70;;;9.30;99.90;;;;;;5066371;28;20186;-81
2023/02/21 14:10:38;;;;;;;2.22;1.85;;;9.10;99.90;;;;;;5049063;28;20255;-80
2023/02/21 14:13:08;;;;;;;0.50;0.40;;;9.10;99.90;;;;;;5066287;28;20218;-82
2023/02/21 14:15:42;;;;;;;3.70;3.22;;;9.10;99.90;;;;;;5065312;28;20253;-82
2023/02/21 14:18:22;;;;;;;0.50;0.35;;;9.10;99.90;;;;;;5060226;28;20223;-82
2023/02/21 14:20:52;;;;;;;3.90;0.95;;;9.20;99.90;;;;;;5075061;28;20205;-81
2023/02/21 14:23:23;;;;;;;2.67;2.47;;;9.10;99.90;;;;;;5065410;28;20276;-81
2023/02/21 14:26:00;;;;;;;4.65;1.20;;;9.10;99.90;;;;;;5066554;28;20278;-81
2023/02/21 14:28:49;;;;;;;7.18;6.60;;;9.20;99.90;;;;;;5070219;28;20193;-80
2023/02/21 14:31:35;;;;;;;2.00;1.90;;;9.10;99.90;;;;;;5074299;28;20205;-82
2023/02/21 14:34:03;;;;;;;5.05;4.53;;;9.00;99.90;;;;;;5066230;28;20285;-83
2023/02/21 14:36:30;;;;;;;0.98;0.98;;;8.90;99.90;;;;;;5064066;28;20277;-81
2023/02/21 14:38:59;;;;;;;0.50;0.40;;;8.90;99.90;;;;;;5079566;28;20190;-79
2023/02/21 14:41:42;;;;;;;3.00;2.45;;;8.90;99.90;;;;;;5066826;28;20302;-81
2023/02/21 14:44:23;;;;;;;0.50;0.40;;;8.90;99.90;;;;;;5077465;28;20232;-82
2023/02/21 14:47:12;;;;;;;0.85;0.82;;;8.80;99.90;;;;;;5068881;28;20276;-81
2023/02/21 14:49:53;;;;;;;1.75;1.60;;;8.90;99.90;;;;;;5078648;28;20240;-81
2023/02/21 14:52:51;;;;;;;0.50;0.30;;;8.90;99.90;;;;;;5076018;28;20770;-81
2023/02/21 14:55:39;;;;;;;1.35;1.23;;;8.90;99.90;;;;;;5059504;28;20277;-82
2023/02/21 14:58:33;;;;;;;1.65;1.55;;;9.00;99.90;;;;;;5066242;28;20210;-81
2023/02/21 15:01:09;;;;;;;1.48;1.42;;;9.00;99.90;;;;;;5047025;28;20282;-81
2023/02/21 15:03:42;;;;;;;0.50;0.40;;;8.90;99.90;;;;;;5079810;28;20197;-82
2023/02/21 15:06:17;;;;;;;19.45;10.88;;;8.90;99.90;;;;;;5089891;28;20250;-79
2023/02/21 15:08:46;;;;;;;5.32;2.42;;;8.90;99.90;;;;;;5080169;28;20213;-80
2023/02/21 15:11:24;;;;;;;0.73;0.55;;;8.90;99.90;;;;;;5075455;28;20201;-81
2023/02/21 15:14:12;;;;;;;1.25;1.25;;;8.90;99.90;;;;;;5079311;28;20186;-81
2023/02/21 15:16:41;;;;;;;5.47;3.15;;;8.90;99.90;;;;;;5063328;28;20198;-81
2023/02/21 15:19:21;;;;;;;0.77;0.77;;;8.90;99.90;;;;;;5066569;28;20257;-80
2023/02/21 15:21:48;;;;;;;1.90;1.80;;;8.80;99.90;;;;;;5074944;28;20681;-81
2023/02/21 15:24:16;;;;;;;0.50;0.38;;;8.90;99.90;;;;;;5070075;28;20253;-78
2023/02/21 15:26:45;;;;;;;0.50;0.40;;;8.90;99.90;;;;;;5070836;28;20226;-80
2023/02/21 15:29:13;;;;;;;5.15;4.75;;;8.90;99.90;;;;;;5076029;28;20232;-81
2023/02/21 15:31:42;;;;;;;7.03;5.28;;;8.90;99.90;;;;;;5070823;28;20448;-80
2023/02/21 15:34:17;;;;;;;3.05;1.70;;;8.90;99.90;;;;;;5069549;28;20193;-80
2023/02/21 15:36:45;;;;;;;0.50;0.40;;;8.90;99.90;;;;;;5066201;28;20263;-81